sensor_id;sensor_type;location;lat;lon;timestamp;pressure;altitude;pressure_sealevel;temperature;humidity
77351;BME280;66420;50.246;14.320;2024-03-25T00:00:14;98110.59;;;4.77;93.10
77351;BME280;66420;50.246;14.320;2024-03-25T00:02:59;98122.84;;;4.75;93.69
77351;BME280;66420;50.246;14.320;2024-03-25T00:05:44;98124.47;;;4.76;93.73
77351;BME280;66420;50.246;14.320;2024-03-25T00:08:29;98134.19;;;4.77;93.48
77351;BME280;66420;50.246;14.320;2024-03-25T00:11:14;98126.44;;;4.84;92.62
77351;BME280;66420;50.246;14.320;2024-03-25T00:13:59;98122.63;;;4.85;92.77
77351;BME280;66420;50.246;14.320;2024-03-25T00:16:44;98135.66;;;4.83;93.65
77351;BME280;66420;50.246;14.320;2024-03-25T00:19:29;98123.84;;;4.79;93.41
77351;BME280;66420;50.246;14.320;2024-03-25T00:22:16;98132.09;;;4.74;94.16
77351;BME280;66420;50.246;14.320;2024-03-25T00:25:00;98130.81;;;4.71;93.61
77351;BME280;66420;50.246;14.320;2024-03-25T00:27:45;98132.00;;;4.65;94.72
77351;BME280;66420;50.246;14.320;2024-03-25T00:30:30;98133.28;;;4.68;94.35
77351;BME280;66420;50.246;14.320;2024-03-25T00:33:15;98125.16;;;4.68;94.53
77351;BME280;66420;50.246;14.320;2024-03-25T00:36:01;98122.69;;;4.58;94.89
77351;BME280;66420;50.246;14.320;2024-03-25T00:38:47;98121.19;;;4.52;95.13
77351;BME280;66420;50.246;14.320;2024-03-25T00:41:32;98120.09;;;4.53;95.30
77351;BME280;66420;50.246;14.320;2024-03-25T00:44:17;98122.69;;;4.58;94.63
77351;BME280;66420;50.246;14.320;2024-03-25T00:47:02;98118.38;;;4.57;94.58
77351;BME280;66420;50.246;14.320;2024-03-25T00:49:47;98109.63;;;4.60;94.71
77351;BME280;66420;50.246;14.320;2024-03-25T00:52:32;98113.44;;;4.59;95.18
77351;BME280;66420;50.246;14.320;2024-03-25T00:55:17;98101.03;;;4.58;95.17
77351;BME280;66420;50.246;14.320;2024-03-25T00:58:03;98107.44;;;4.62;95.06
77351;BME280;66420;50.246;14.320;2024-03-25T01:00:48;98113.22;;;4.69;94.73
77351;BME280;66420;50.246;14.320;2024-03-25T01:03:33;98113.34;;;4.64;95.08
77351;BME280;66420;50.246;14.320;2024-03-25T01:06:18;98109.63;;;4.60;95.75
77351;BME280;66420;50.246;14.320;2024-03-25T01:09:03;98113.25;;;4.55;95.33
77351;BME280;66420;50.246;14.320;2024-03-25T01:11:49;98115.16;;;4.55;95.52
77351;BME280;66420;50.246;14.320;2024-03-25T01:14:33;98118.38;;;4.57;95.15
77351;BME280;66420;50.246;14.320;2024-03-25T01:17:18;98113.44;;;4.59;95.40
77351;BME280;66420;50.246;14.320;2024-03-25T01:20:04;98115.38;;;4.58;96.13
77351;BME280;66420;50.246;14.320;2024-03-25T01:22:49;98105.47;;;4.54;96.05
77351;BME280;66420;50.246;14.320;2024-03-25T01:25:33;98113.06;;;4.52;95.43
77351;BME280;66420;50.246;14.320;2024-03-25T01:28:19;98107.66;;;4.52;96.11
77351;BME280;66420;50.246;14.320;2024-03-25T01:31:04;98107.66;;;4.52;96.17
77351;BME280;66420;50.246;14.320;2024-03-25T01:33:49;98113.59;;;4.54;96.05
77351;BME280;66420;50.246;14.320;2024-03-25T01:36:35;98112.28;;;4.51;96.62
77351;BME280;66420;50.246;14.320;2024-03-25T01:39:20;98112.47;;;4.55;96.53
77351;BME280;66420;50.246;14.320;2024-03-25T01:42:04;98115.69;;;4.57;96.51
77351;BME280;66420;50.246;14.320;2024-03-25T01:44:49;98106.63;;;4.61;95.97
77351;BME280;66420;50.246;14.320;2024-03-25T01:47:34;98105.81;;;4.61;96.74
77351;BME280;66420;50.246;14.320;2024-03-25T01:50:20;98106.94;;;4.60;96.86
77351;BME280;66420;50.246;14.320;2024-03-25T01:53:06;98105.03;;;4.60;98.40
77351;BME280;66420;50.246;14.320;2024-03-25T01:55:53;98107.25;;;4.58;99.21
77351;BME280;66420;50.246;14.320;2024-03-25T01:58:40;98096.72;;;4.57;99.56
77351;BME280;66420;50.246;14.320;2024-03-25T02:01:25;98106.13;;;4.59;98.91
77351;BME280;66420;50.246;14.320;2024-03-25T02:04:10;98101.41;;;4.65;97.57
77351;BME280;66420;50.246;14.320;2024-03-25T02:06:56;98110.22;;;4.70;96.83
77351;BME280;66420;50.246;14.320;2024-03-25T02:09:42;98108.78;;;4.73;96.69
77351;BME280;66420;50.246;14.320;2024-03-25T02:12:29;98102.78;;;4.76;95.99
77351;BME280;66420;50.246;14.320;2024-03-25T02:15:14;98114.63;;;4.80;94.92
77351;BME280;66420;50.246;14.320;2024-03-25T02:17:59;98114.50;;;4.85;94.92
77351;BME280;66420;50.246;14.320;2024-03-25T02:20:44;98118.66;;;4.91;93.48
77351;BME280;66420;50.246;14.320;2024-03-25T02:23:29;98122.25;;;5.00;91.98
77351;BME280;66420;50.246;14.320;2024-03-25T02:26:14;98122.25;;;5.00;91.78
77351;BME280;66420;50.246;14.320;2024-03-25T02:28:59;98121.78;;;4.98;92.12
77351;BME280;66420;50.246;14.320;2024-03-25T02:31:43;98125.59;;;4.97;92.49
77351;BME280;66420;50.246;14.320;2024-03-25T02:34:28;98123.16;;;4.96;92.57
77351;BME280;66420;50.246;14.320;2024-03-25T02:37:13;98119.53;;;5.00;91.42
77351;BME280;66420;50.246;14.320;2024-03-25T02:39:59;98125.59;;;4.97;91.63
77351;BME280;66420;50.246;14.320;2024-03-25T02:42:45;98116.84;;;5.00;90.72
77351;BME280;66420;50.246;14.320;2024-03-25T02:45:31;98114.94;;;5.01;91.21
77351;BME280;66420;50.246;14.320;2024-03-25T02:48:15;98119.13;;;5.07;89.21
77351;BME280;66420;50.246;14.320;2024-03-25T02:51:00;98123.94;;;5.10;88.86
77351;BME280;66420;50.246;14.320;2024-03-25T02:53:45;98126.97;;;5.08;88.97
77351;BME280;66420;50.246;14.320;2024-03-25T02:56:30;98136.56;;;5.14;88.01
77351;BME280;66420;50.246;14.320;2024-03-25T02:59:15;98125.13;;;5.17;88.05
77351;BME280;66420;50.246;14.320;2024-03-25T03:02:00;98129.28;;;5.23;86.68
77351;BME280;66420;50.246;14.320;2024-03-25T03:04:45;98127.50;;;5.19;87.12
77351;BME280;66420;50.246;14.320;2024-03-25T03:07:29;98129.28;;;5.23;86.67
77351;BME280;66420;50.246;14.320;2024-03-25T03:10:14;98141.28;;;5.22;86.05
77351;BME280;66420;50.246;14.320;2024-03-25T03:13:00;98140.75;;;5.20;85.99
77351;BME280;66420;50.246;14.320;2024-03-25T03:15:44;98139.97;;;5.20;85.38
77351;BME280;66420;50.246;14.320;2024-03-25T03:18:29;98149.03;;;5.15;87.01
77351;BME280;66420;50.246;14.320;2024-03-25T03:21:14;98155.88;;;5.13;86.35
77351;BME280;66420;50.246;14.320;2024-03-25T03:23:59;98148.66;;;5.08;86.02
77351;BME280;66420;50.246;14.320;2024-03-25T03:26:44;98148.44;;;5.05;86.01
77351;BME280;66420;50.246;14.320;2024-03-25T03:29:29;98149.25;;;5.05;86.15
77351;BME280;66420;50.246;14.320;2024-03-25T03:32:14;98155.47;;;5.06;86.31
77351;BME280;66420;50.246;14.320;2024-03-25T03:34:59;98165.03;;;5.03;85.77
77351;BME280;66420;50.246;14.320;2024-03-25T03:37:43;98162.91;;;5.00;86.00
77351;BME280;66420;50.246;14.320;2024-03-25T03:40:28;98159.50;;;5.08;85.28
77351;BME280;66420;50.246;14.320;2024-03-25T03:43:13;98175.88;;;5.03;86.31
77351;BME280;66420;50.246;14.320;2024-03-25T03:45:58;98172.66;;;5.01;86.34
77351;BME280;66420;50.246;14.320;2024-03-25T03:48:43;98184.03;;;5.03;85.54
77351;BME280;66420;50.246;14.320;2024-03-25T03:51:28;98177.00;;;5.02;85.89
77351;BME280;66420;50.246;14.320;2024-03-25T03:54:13;98173.19;;;5.03;85.25
77351;BME280;66420;50.246;14.320;2024-03-25T03:56:58;98180.50;;;5.03;84.54
77351;BME280;66420;50.246;14.320;2024-03-25T03:59:42;98181.09;;;5.00;85.00
77351;BME280;66420;50.246;14.320;2024-03-25T04:02:28;98183.81;;;5.00;85.20
77351;BME280;66420;50.246;14.320;2024-03-25T04:05:15;98192.25;;;4.98;85.42
77351;BME280;66420;50.246;14.320;2024-03-25T04:08:00;98201.31;;;4.94;86.20
77351;BME280;66420;50.246;14.320;2024-03-25T04:10:45;98188.44;;;4.99;84.69
77351;BME280;66420;50.246;14.320;2024-03-25T04:13:30;98197.69;;;4.98;84.91
77351;BME280;66420;50.246;14.320;2024-03-25T04:16:14;98202.59;;;4.96;85.38
77351;BME280;66420;50.246;14.320;2024-03-25T04:18:59;98205.63;;;4.95;85.43
77351;BME280;66420;50.246;14.320;2024-03-25T04:21:44;98204.63;;;4.90;85.39
77351;BME280;66420;50.246;14.320;2024-03-25T04:24:29;98215.16;;;4.92;84.58
77351;BME280;66420;50.246;14.320;2024-03-25T04:27:13;98212.97;;;4.94;84.83
77351;BME280;66420;50.246;14.320;2024-03-25T04:29:58;98212.06;;;4.99;84.36
77351;BME280;66420;50.246;14.320;2024-03-25T04:32:42;98225.28;;;5.00;84.31
77351;BME280;66420;50.246;14.320;2024-03-25T04:35:27;98219.97;;;4.95;85.48
77351;BME280;66420;50.246;14.320;2024-03-25T04:38:12;98226.81;;;4.93;84.57
77351;BME280;66420;50.246;14.320;2024-03-25T04:40:58;98240.19;;;4.89;85.57
77351;BME280;66420;50.246;14.320;2024-03-25T04:43:42;98228.81;;;4.87;84.98
77351;BME280;66420;50.246;14.320;2024-03-25T04:46:28;98243.47;;;4.86;84.94
77351;BME280;66420;50.246;14.320;2024-03-25T04:49:12;98234.66;;;4.80;85.76
77351;BME280;66420;50.246;14.320;2024-03-25T04:51:57;98246.91;;;4.78;85.68
77351;BME280;66420;50.246;14.320;2024-03-25T04:54:41;98261.56;;;4.77;85.76
77351;BME280;66420;50.246;14.320;2024-03-25T04:57:26;98269.09;;;4.80;86.81
77351;BME280;66420;50.246;14.320;2024-03-25T05:00:11;98265.41;;;4.76;87.49
77351;BME280;66420;50.246;14.320;2024-03-25T05:02:56;98274.09;;;4.73;88.11
77351;BME280;66420;50.246;14.320;2024-03-25T05:05:40;98284.47;;;4.71;89.25
77351;BME280;66420;50.246;14.320;2024-03-25T05:08:25;98293.31;;;4.76;88.26
77351;BME280;66420;50.246;14.320;2024-03-25T05:11:10;98293.88;;;4.73;88.97
77351;BME280;66420;50.246;14.320;2024-03-25T05:13:56;98284.75;;;4.69;89.00
77351;BME280;66420;50.246;14.320;2024-03-25T05:16:40;98285.94;;;4.63;90.33
77351;BME280;66420;50.246;14.320;2024-03-25T05:19:25;98293.50;;;4.66;90.01
77351;BME280;66420;50.246;14.320;2024-03-25T05:22:10;98295.41;;;4.66;90.31
77351;BME280;66420;50.246;14.320;2024-03-25T05:24:56;98297.50;;;4.69;90.91
77351;BME280;66420;50.246;14.320;2024-03-25T05:27:40;98295.28;;;4.57;92.83
77351;BME280;66420;50.246;14.320;2024-03-25T05:30:26;98304.91;;;4.50;93.09
77351;BME280;66420;50.246;14.320;2024-03-25T05:33:10;98308.75;;;4.49;93.50
77351;BME280;66420;50.246;14.320;2024-03-25T05:35:55;98326.56;;;4.50;94.25
77351;BME280;66420;50.246;14.320;2024-03-25T05:38:40;98333.94;;;4.49;94.25
77351;BME280;66420;50.246;14.320;2024-03-25T05:41:27;98334.22;;;4.47;95.69
77351;BME280;66420;50.246;14.320;2024-03-25T05:44:11;98336.94;;;4.47;96.94
77351;BME280;66420;50.246;14.320;2024-03-25T05:46:56;98339.63;;;4.47;97.41
77351;BME280;66420;50.246;14.320;2024-03-25T05:49:41;98346.16;;;4.46;96.54
77351;BME280;66420;50.246;14.320;2024-03-25T05:52:28;98342.44;;;4.42;97.19
77351;BME280;66420;50.246;14.320;2024-03-25T05:55:13;98343.63;;;4.36;97.74
77351;BME280;66420;50.246;14.320;2024-03-25T05:57:58;98352.13;;;4.30;97.46
77351;BME280;66420;50.246;14.320;2024-03-25T06:00:42;98354.63;;;4.26;97.99
77351;BME280;66420;50.246;14.320;2024-03-25T06:03:27;98350.25;;;4.30;97.61
77351;BME280;66420;50.246;14.320;2024-03-25T06:06:11;98358.69;;;4.42;96.91
77351;BME280;66420;50.246;14.320;2024-03-25T06:08:56;98365.84;;;4.66;95.82
77351;BME280;66420;50.246;14.320;2024-03-25T06:11:40;98361.66;;;4.87;94.14
77351;BME280;66420;50.246;14.320;2024-03-25T06:14:25;98368.97;;;5.00;92.74
77351;BME280;66420;50.246;14.320;2024-03-25T06:17:10;98369.59;;;4.97;91.91
77351;BME280;66420;50.246;14.320;2024-03-25T06:19:54;98372.59;;;4.96;92.54
77351;BME280;66420;50.246;14.320;2024-03-25T06:22:39;98378.03;;;4.96;92.80
77351;BME280;66420;50.246;14.320;2024-03-25T06:25:23;98392.91;;;4.98;92.23
77351;BME280;66420;50.246;14.320;2024-03-25T06:28:08;98388.28;;;4.99;91.58
77351;BME280;66420;50.246;14.320;2024-03-25T06:30:53;98397.09;;;5.04;91.64
77351;BME280;66420;50.246;14.320;2024-03-25T06:33:56;98394.19;;;5.14;90.30
77351;BME280;66420;50.246;14.320;2024-03-25T06:37:01;98394.72;;;5.16;89.47
77351;BME280;66420;50.246;14.320;2024-03-25T06:39:46;98400.13;;;5.16;88.58
77351;BME280;66420;50.246;14.320;2024-03-25T06:42:30;98396.31;;;5.17;88.32
77351;BME280;66420;50.246;14.320;2024-03-25T06:45:15;98403.94;;;5.15;87.94
77351;BME280;66420;50.246;14.320;2024-03-25T06:48:00;98410.97;;;5.16;87.26
77351;BME280;66420;50.246;14.320;2024-03-25T06:50:58;98414.19;;;5.18;87.86
77351;BME280;66420;50.246;14.320;2024-03-25T06:53:43;98416.59;;;5.20;86.88
77351;BME280;66420;50.246;14.320;2024-03-25T06:56:27;98416.59;;;5.20;87.26
77351;BME280;66420;50.246;14.320;2024-03-25T06:59:12;98412.78;;;5.21;87.39
77351;BME280;66420;50.246;14.320;2024-03-25T07:01:57;98417.91;;;5.22;86.49
77351;BME280;66420;50.246;14.320;2024-03-25T07:04:42;98425.53;;;5.20;87.27
77351;BME280;66420;50.246;14.320;2024-03-25T07:07:26;98420.13;;;5.20;86.82
77351;BME280;66420;50.246;14.320;2024-03-25T07:10:11;98433.69;;;5.20;87.35
77351;BME280;66420;50.246;14.320;2024-03-25T07:12:56;98438.00;;;5.21;87.48
77351;BME280;66420;50.246;14.320;2024-03-25T07:15:42;98446.16;;;5.21;87.69
77351;BME280;66420;50.246;14.320;2024-03-25T07:18:27;98430.59;;;5.27;87.86
77351;BME280;66420;50.246;14.320;2024-03-25T07:21:12;98438.91;;;5.30;87.89
77351;BME280;66420;50.246;14.320;2024-03-25T07:23:56;98453.38;;;5.40;88.37
77351;BME280;66420;50.246;14.320;2024-03-25T07:26:41;98440.53;;;5.45;87.54
77351;BME280;66420;50.246;14.320;2024-03-25T07:29:26;98439.41;;;5.46;87.44
77351;BME280;66420;50.246;14.320;2024-03-25T07:32:10;98451.56;;;5.49;87.80
77351;BME280;66420;50.246;14.320;2024-03-25T07:34:55;98451.97;;;5.56;87.64
77351;BME280;66420;50.246;14.320;2024-03-25T07:37:41;98458.28;;;5.65;86.04
77351;BME280;66420;50.246;14.320;2024-03-25T07:40:25;98462.69;;;5.74;85.78
77351;BME280;66420;50.246;14.320;2024-03-25T07:43:11;98458.38;;;5.87;85.62
77351;BME280;66420;50.246;14.320;2024-03-25T07:45:56;98459.38;;;5.91;83.39
77351;BME280;66420;50.246;14.320;2024-03-25T07:48:41;98469.03;;;5.97;81.94
77351;BME280;66420;50.246;14.320;2024-03-25T07:51:26;98473.72;;;6.05;81.79
77351;BME280;66420;50.246;14.320;2024-03-25T07:54:11;98471.59;;;6.16;82.79
77351;BME280;66420;50.246;14.320;2024-03-25T07:56:58;98467.78;;;6.17;81.99
77351;BME280;66420;50.246;14.320;2024-03-25T07:59:43;98468.88;;;6.16;81.96
77351;BME280;66420;50.246;14.320;2024-03-25T08:02:27;98476.56;;;6.14;82.37
77351;BME280;66420;50.246;14.320;2024-03-25T08:05:11;98483.38;;;6.11;81.47
77351;BME280;66420;50.246;14.320;2024-03-25T08:07:56;98482.09;;;6.09;80.84
77351;BME280;66420;50.246;14.320;2024-03-25T08:10:41;98486.72;;;6.08;80.51
77351;BME280;66420;50.246;14.320;2024-03-25T08:13:26;98493.75;;;6.09;80.68
77351;BME280;66420;50.246;14.320;2024-03-25T08:16:11;98492.03;;;6.13;81.43
77351;BME280;66420;50.246;14.320;2024-03-25T08:18:56;98490.00;;;6.19;81.62
77351;BME280;66420;50.246;14.320;2024-03-25T08:21:41;98498.53;;;6.26;82.05
77351;BME280;66420;50.246;14.320;2024-03-25T08:24:26;98503.97;;;6.26;80.00
77351;BME280;66420;50.246;14.320;2024-03-25T08:27:11;98500.97;;;6.28;80.01
77351;BME280;66420;50.246;14.320;2024-03-25T08:29:56;98510.59;;;6.34;79.89
77351;BME280;66420;50.246;14.320;2024-03-25T08:32:41;98498.63;;;6.35;79.56
77351;BME280;66420;50.246;14.320;2024-03-25T08:35:25;98504.75;;;6.40;78.62
77351;BME280;66420;50.246;14.320;2024-03-25T08:38:11;98500.22;;;6.36;77.31
77351;BME280;66420;50.246;14.320;2024-03-25T08:40:55;98514.91;;;6.35;77.16
77351;BME280;66420;50.246;14.320;2024-03-25T08:43:40;98543.00;;;6.30;77.42
77351;BME280;66420;50.246;14.320;2024-03-25T08:46:25;98561.78;;;6.04;83.82
77351;BME280;66420;50.246;14.320;2024-03-25T08:49:10;98550.47;;;5.56;90.56
77351;BME280;66420;50.246;14.320;2024-03-25T08:51:54;98552.59;;;5.13;93.52
77351;BME280;66420;50.246;14.320;2024-03-25T08:54:39;98549.47;;;5.06;94.79
77351;BME280;66420;50.246;14.320;2024-03-25T08:57:24;98552.41;;;5.23;96.47
77351;BME280;66420;50.246;14.320;2024-03-25T09:00:09;98564.69;;;5.21;96.81
77351;BME280;66420;50.246;14.320;2024-03-25T09:02:55;98571.09;;;5.11;97.09
77351;BME280;66420;50.246;14.320;2024-03-25T09:05:39;98565.66;;;5.11;95.67
77351;BME280;66420;50.246;14.320;2024-03-25T09:08:24;98573.66;;;5.03;93.54
77351;BME280;66420;50.246;14.320;2024-03-25T09:11:08;98576.34;;;5.21;95.44
77351;BME280;66420;50.246;14.320;2024-03-25T09:13:53;98576.88;;;5.37;95.13
77351;BME280;66420;50.246;14.320;2024-03-25T09:16:38;98572.97;;;5.57;94.99
77351;BME280;66420;50.246;14.320;2024-03-25T09:19:23;98576.72;;;5.74;95.04
77351;BME280;66420;50.246;14.320;2024-03-25T09:22:07;98575.75;;;6.11;93.14
77351;BME280;66420;50.246;14.320;2024-03-25T09:24:52;98582.13;;;6.79;90.38
77351;BME280;66420;50.246;14.320;2024-03-25T09:27:37;98586.91;;;6.95;90.51
77351;BME280;66420;50.246;14.320;2024-03-25T09:30:22;98578.75;;;6.95;88.05
77351;BME280;66420;50.246;14.320;2024-03-25T09:33:06;98585.19;;;7.22;85.91
77351;BME280;66420;50.246;14.320;2024-03-25T09:35:51;98595.50;;;7.11;85.64
77351;BME280;66420;50.246;14.320;2024-03-25T09:38:36;98598.94;;;6.45;85.31
77351;BME280;66420;50.246;14.320;2024-03-25T09:41:22;98602.00;;;6.02;87.76
77351;BME280;66420;50.246;14.320;2024-03-25T09:44:07;98594.91;;;5.74;88.61
77351;BME280;66420;50.246;14.320;2024-03-25T09:46:52;98594.28;;;5.50;89.46
77351;BME280;66420;50.246;14.320;2024-03-25T09:49:36;98593.28;;;5.73;88.40
77351;BME280;66420;50.246;14.320;2024-03-25T09:52:21;98599.97;;;5.80;86.61
77351;BME280;66420;50.246;14.320;2024-03-25T09:55:07;98609.03;;;6.03;87.33
77351;BME280;66420;50.246;14.320;2024-03-25T09:57:52;98598.94;;;6.45;87.59
77351;BME280;66420;50.246;14.320;2024-03-25T10:00:38;98598.72;;;6.55;84.27
77351;BME280;66420;50.246;14.320;2024-03-25T10:03:24;98605.28;;;6.54;83.81
77351;BME280;66420;50.246;14.320;2024-03-25T10:06:08;98604.94;;;6.69;85.08
77351;BME280;66420;50.246;14.320;2024-03-25T10:08:54;98605.78;;;6.92;84.52
77351;BME280;66420;50.246;14.320;2024-03-25T10:11:41;98601.25;;;7.32;84.43
77351;BME280;66420;50.246;14.320;2024-03-25T10:14:26;98600.44;;;7.31;83.08
77351;BME280;66420;50.246;14.320;2024-03-25T10:17:11;98605.81;;;7.45;84.08
77351;BME280;66420;50.246;14.320;2024-03-25T10:19:56;98606.28;;;7.69;82.57
77351;BME280;66420;50.246;14.320;2024-03-25T10:22:44;98608.09;;;7.82;80.14
77351;BME280;66420;50.246;14.320;2024-03-25T10:25:31;98599.00;;;7.56;77.89
77351;BME280;66420;50.246;14.320;2024-03-25T10:28:16;98600.25;;;7.50;75.88
77351;BME280;66420;50.246;14.320;2024-03-25T10:31:04;98607.56;;;7.41;73.22
77351;BME280;66420;50.246;14.320;2024-03-25T10:33:50;98601.94;;;7.37;74.35
77351;BME280;66420;50.246;14.320;2024-03-25T10:36:34;98606.88;;;7.35;73.16
77351;BME280;66420;50.246;14.320;2024-03-25T10:39:20;98609.78;;;7.17;74.46
77351;BME280;66420;50.246;14.320;2024-03-25T10:42:10;98612.03;;;7.15;74.96
77351;BME280;66420;50.246;14.320;2024-03-25T10:44:58;98620.44;;;7.04;75.13
77351;BME280;66420;50.246;14.320;2024-03-25T10:47:43;98623.38;;;6.94;75.24
77351;BME280;66420;50.246;14.320;2024-03-25T10:50:31;98618.56;;;6.91;74.81
77351;BME280;66420;50.246;14.320;2024-03-25T10:53:18;98615.97;;;7.08;75.55
77351;BME280;66420;50.246;14.320;2024-03-25T10:56:03;98615.09;;;6.99;75.47
77351;BME280;66420;50.246;14.320;2024-03-25T10:58:50;98607.63;;;7.05;76.75
77351;BME280;66420;50.246;14.320;2024-03-25T11:01:35;98618.81;;;7.03;77.68
77351;BME280;66420;50.246;14.320;2024-03-25T11:04:21;98615.72;;;6.96;77.43
77351;BME280;66420;50.246;14.320;2024-03-25T11:07:12;98606.19;;;7.30;78.90
77351;BME280;66420;50.246;14.320;2024-03-25T11:10:05;98599.66;;;7.31;78.06
77351;BME280;66420;50.246;14.320;2024-03-25T11:12:53;98600.28;;;7.28;79.60
77351;BME280;66420;50.246;14.320;2024-03-25T11:15:42;98604.53;;;7.42;78.46
77351;BME280;66420;50.246;14.320;2024-03-25T11:18:30;98604.03;;;7.40;79.60
77351;BME280;66420;50.246;14.320;2024-03-25T11:21:25;98601.44;;;7.66;80.07
77351;BME280;66420;50.246;14.320;2024-03-25T11:24:10;98603.16;;;7.31;78.14
77351;BME280;66420;50.246;14.320;2024-03-25T11:26:56;98601.38;;;7.27;78.02
77351;BME280;66420;50.246;14.320;2024-03-25T11:29:40;98593.94;;;7.41;79.14
77351;BME280;66420;50.246;14.320;2024-03-25T11:32:26;98598.69;;;7.57;79.25
77351;BME280;66420;50.246;14.320;2024-03-25T11:35:11;98598.59;;;7.71;79.15
77351;BME280;66420;50.246;14.320;2024-03-25T11:37:56;98599.06;;;7.65;75.92
77351;BME280;66420;50.246;14.320;2024-03-25T11:40:45;98605.38;;;7.82;75.87
77351;BME280;66420;50.246;14.320;2024-03-25T11:43:30;98607.47;;;7.85;72.61
77351;BME280;66420;50.246;14.320;2024-03-25T11:46:17;98603.00;;;7.58;71.40
77351;BME280;66420;50.246;14.320;2024-03-25T11:49:06;98599.56;;;7.75;71.82
77351;BME280;66420;50.246;14.320;2024-03-25T11:51:51;98601.88;;;7.90;71.73
77351;BME280;66420;50.246;14.320;2024-03-25T11:54:36;98602.91;;;8.12;71.23
77351;BME280;66420;50.246;14.320;2024-03-25T11:57:22;98601.69;;;8.26;71.67
77351;BME280;66420;50.246;14.320;2024-03-25T12:00:07;98600.56;;;8.19;70.59
77351;BME280;66420;50.246;14.320;2024-03-25T12:02:55;98596.88;;;8.23;70.23
77351;BME280;66420;50.246;14.320;2024-03-25T12:05:40;98594.09;;;8.54;69.64
77351;BME280;66420;50.246;14.320;2024-03-25T12:08:26;98598.38;;;8.29;67.96
77351;BME280;66420;50.246;14.320;2024-03-25T12:11:12;98594.31;;;8.27;69.26
77351;BME280;66420;50.246;14.320;2024-03-25T12:14:03;98594.94;;;8.15;69.97
77351;BME280;66420;50.246;14.320;2024-03-25T12:16:49;98582.19;;;8.02;70.37
77351;BME280;66420;50.246;14.320;2024-03-25T12:19:35;98585.25;;;8.00;71.06
77351;BME280;66420;50.246;14.320;2024-03-25T12:22:20;98587.44;;;7.81;70.20
77351;BME280;66420;50.246;14.320;2024-03-25T12:25:05;98589.22;;;7.55;70.46
77351;BME280;66420;50.246;14.320;2024-03-25T12:27:51;98584.69;;;7.81;71.21
77351;BME280;66420;50.246;14.320;2024-03-25T12:30:50;98591.75;;;7.82;70.28
77351;BME280;66420;50.246;14.320;2024-03-25T12:33:42;98587.56;;;8.16;71.85
77351;BME280;66420;50.246;14.320;2024-03-25T12:36:28;98591.41;;;8.15;69.98
77351;BME280;66420;50.246;14.320;2024-03-25T12:39:18;98589.59;;;8.01;70.82
77351;BME280;66420;50.246;14.320;2024-03-25T12:42:06;98587.50;;;7.98;70.84
77351;BME280;66420;50.246;14.320;2024-03-25T12:44:51;98579.31;;;8.38;72.76
77351;BME280;66420;50.246;14.320;2024-03-25T12:47:35;98574.84;;;8.76;69.47
77351;BME280;66420;50.246;14.320;2024-03-25T12:50:20;98575.50;;;9.16;69.36
77351;BME280;66420;50.246;14.320;2024-03-25T12:53:08;98577.41;;;8.81;65.35
77351;BME280;66420;50.246;14.320;2024-03-25T12:55:54;98565.72;;;9.70;64.51
77351;BME280;66420;50.246;14.320;2024-03-25T12:58:38;98563.75;;;9.79;63.85
77351;BME280;66420;50.246;14.320;2024-03-25T13:01:23;98560.50;;;10.24;62.27
77351;BME280;66420;50.246;14.320;2024-03-25T13:04:08;98564.09;;;9.69;65.73
77351;BME280;66420;50.246;14.320;2024-03-25T13:06:54;98555.34;;;9.47;66.11
77351;BME280;66420;50.246;14.320;2024-03-25T13:09:39;98562.59;;;9.34;65.76
77351;BME280;66420;50.246;14.320;2024-03-25T13:12:24;98567.22;;;9.51;65.53
77351;BME280;66420;50.246;14.320;2024-03-25T13:15:08;98571.94;;;8.99;64.74
77351;BME280;66420;50.246;14.320;2024-03-25T13:17:54;98576.75;;;9.19;66.66
77351;BME280;66420;50.246;14.320;2024-03-25T13:20:39;98567.88;;;9.48;67.65
77351;BME280;66420;50.246;14.320;2024-03-25T13:23:24;98566.59;;;9.45;65.68
77351;BME280;66420;50.246;14.320;2024-03-25T13:26:08;98570.72;;;9.60;64.70
77351;BME280;66420;50.246;14.320;2024-03-25T13:28:53;98578.88;;;9.68;63.95
77351;BME280;66420;50.246;14.320;2024-03-25T13:31:38;98569.09;;;9.67;65.26
77351;BME280;66420;50.246;14.320;2024-03-25T13:34:23;98569.91;;;9.59;64.72
77351;BME280;66420;50.246;14.320;2024-03-25T13:37:08;98570.16;;;9.84;65.52
77351;BME280;66420;50.246;14.320;2024-03-25T13:39:53;98570.66;;;10.15;64.58
77351;BME280;66420;50.246;14.320;2024-03-25T13:42:37;98564.25;;;10.11;61.71
77351;BME280;66420;50.246;14.320;2024-03-25T13:45:22;98567.00;;;9.64;62.90
77351;BME280;66420;50.246;14.320;2024-03-25T13:48:07;98567.22;;;9.51;62.16
77351;BME280;66420;50.246;14.320;2024-03-25T13:50:55;98562.41;;;9.48;62.09
77351;BME280;66420;50.246;14.320;2024-03-25T13:53:40;98554.31;;;9.68;60.66
77351;BME280;66420;50.246;14.320;2024-03-25T13:56:25;98562.28;;;9.82;60.11
77351;BME280;66420;50.246;14.320;2024-03-25T13:59:09;98560.06;;;9.75;62.49
77351;BME280;66420;50.246;14.320;2024-03-25T14:01:54;98559.09;;;9.80;60.46
77351;BME280;66420;50.246;14.320;2024-03-25T14:04:39;98557.97;;;10.10;60.95
77351;BME280;66420;50.246;14.320;2024-03-25T14:07:24;98561.25;;;10.33;60.90
77351;BME280;66420;50.246;14.320;2024-03-25T14:10:08;98560.38;;;10.71;55.81
77351;BME280;66420;50.246;14.320;2024-03-25T14:12:56;98551.66;;;10.68;55.05
77351;BME280;66420;50.246;14.320;2024-03-25T14:15:40;98555.88;;;10.87;55.58
77351;BME280;66420;50.246;14.320;2024-03-25T14:18:25;98561.00;;;11.09;56.06
77351;BME280;66420;50.246;14.320;2024-03-25T14:21:10;98554.88;;;10.71;53.86
77351;BME280;66420;50.246;14.320;2024-03-25T14:23:54;98550.50;;;10.28;55.01
77351;BME280;66420;50.246;14.320;2024-03-25T14:26:39;98551.09;;;10.04;57.50
77351;BME280;66420;50.246;14.320;2024-03-25T14:29:24;98550.19;;;10.50;55.77
77351;BME280;66420;50.246;14.320;2024-03-25T14:32:08;98547.19;;;10.64;54.73
77351;BME280;66420;50.246;14.320;2024-03-25T14:34:53;98545.31;;;11.18;54.10